Time;durP1;ratioP1;P1;durP2;ratioP2;P2;SDS_P1;SDS_P2;PMS_P1;PMS_P2;Temp;Humidity;BMP_temperature;BMP_pressure;BME280_temperature;BME280_humidity;BME280_pressure;Samples;Min_cycle;Max_cycle;Signal;HPM_P1;HPM_P2
2023/05/31 00:02:25;;;;;;;3.47;2.10;;;22.00;46.00;;;;;;5048941;22;20239;-77
2023/05/31 00:04:53;;;;;;;2.78;2.25;;;21.90;45.90;;;;;;4999839;28;20206;-77
2023/05/31 00:07:20;;;;;;;2.22;2.00;;;21.90;46.10;;;;;;5016563;28;20220;-77
2023/05/31 00:09:48;;;;;;;2.83;2.00;;;21.90;46.10;;;;;;5017878;28;20200;-77
2023/05/31 00:12:15;;;;;;;1.95;1.80;;;21.90;45.90;;;;;;5019207;28;20200;-77
2023/05/31 00:14:42;;;;;;;2.13;1.80;;;21.80;46.30;;;;;;5015963;28;20196;-77
2023/05/31 00:17:10;;;;;;;1.85;1.70;;;21.80;46.20;;;;;;5033746;28;20259;-77
2023/05/31 00:19:36;;;;;;;4.22;2.05;;;21.80;46.10;;;;;;5033287;28;20195;-77
2023/05/31 00:22:05;;;;;;;3.28;2.00;;;21.80;46.10;;;;;;5015730;28;20203;-77
2023/05/31 00:24:33;;;;;;;2.15;1.95;;;21.80;46.10;;;;;;5015731;28;20200;-77
2023/05/31 00:27:00;;;;;;;1.90;1.80;;;21.80;46.70;;;;;;5015736;28;20228;-77
2023/05/31 00:29:28;;;;;;;2.30;2.10;;;21.80;46.30;;;;;;5015663;28;20208;-77
2023/05/31 00:31:56;;;;;;;2.90;2.13;;;21.70;46.20;;;;;;5015583;28;20207;-77
2023/05/31 00:34:24;;;;;;;2.20;2.00;;;21.80;46.70;;;;;;5015672;28;20254;-77
2023/05/31 00:36:51;;;;;;;2.30;2.00;;;21.70;46.20;;;;;;4999334;28;20221;-77
2023/05/31 00:39:20;;;;;;;1.98;1.77;;;21.70;46.80;;;;;;5033251;28;20271;-77
2023/05/31 00:41:47;;;;;;;3.42;2.25;;;21.70;46.60;;;;;;4999236;28;20204;-77
2023/05/31 00:44:14;;;;;;;2.10;1.90;;;21.70;46.30;;;;;;5016177;28;20203;-77
2023/05/31 00:46:41;;;;;;;2.28;2.00;;;21.70;46.50;;;;;;5015643;28;20598;-77
2023/05/31 00:49:08;;;;;;;2.25;1.98;;;21.60;46.80;;;;;;5015645;28;20196;-77
2023/05/31 00:51:35;;;;;;;2.20;2.00;;;21.60;46.20;;;;;;5018333;28;20199;-77
2023/05/31 00:54:02;;;;;;;2.30;2.00;;;21.60;46.30;;;;;;5018949;28;20295;-77
2023/05/31 00:56:31;;;;;;;3.25;2.00;;;21.60;46.50;;;;;;5018860;28;20220;-77
2023/05/31 00:58:58;;;;;;;3.65;2.45;;;21.60;46.30;;;;;;5018914;28;20211;-77
2023/05/31 01:01:27;;;;;;;3.00;2.40;;;21.60;45.90;;;;;;5018634;28;20212;-77
2023/05/31 01:03:55;;;;;;;2.40;2.08;;;21.60;46.90;;;;;;5018834;28;20203;-77
2023/05/31 01:06:23;;;;;;;2.80;2.00;;;21.60;46.30;;;;;;5018549;28;20223;-77
2023/05/31 01:08:51;;;;;;;2.70;2.28;;;21.60;46.50;;;;;;5018567;28;20198;-75
2023/05/31 01:11:25;;;;;;;2.65;1.95;;;21.50;46.20;;;;;;5018756;28;20211;-75
2023/05/31 01:13:58;;;;;;;3.20;2.03;;;21.60;46.30;;;;;;5018822;28;20249;-75
2023/05/31 01:16:28;;;;;;;2.20;2.00;;;21.50;46.10;;;;;;5019034;28;20219;-75
2023/05/31 01:19:02;;;;;;;2.90;2.20;;;21.50;46.10;;;;;;5018747;28;20725;-75
2023/05/31 01:21:34;;;;;;;2.03;1.83;;;21.50;46.30;;;;;;5019112;28;20204;-75
2023/05/31 01:24:10;;;;;;;2.00;1.80;;;21.50;47.00;;;;;;5018486;28;20200;-75
2023/05/31 01:26:41;;;;;;;2.30;2.10;;;21.50;45.80;;;;;;5018341;28;20251;-75
2023/05/31 01:29:10;;;;;;;2.05;1.80;;;21.50;46.10;;;;;;5018429;28;20196;-75
2023/05/31 01:31:38;;;;;;;2.05;1.85;;;21.50;46.70;;;;;;5018742;28;20207;-75
2023/05/31 01:34:05;;;;;;;2.90;1.90;;;21.50;46.30;;;;;;5019267;28;20631;-75
2023/05/31 01:36:32;;;;;;;2.63;1.90;;;21.50;46.70;;;;;;5019151;28;20212;-75
2023/05/31 01:39:00;;;;;;;2.65;2.00;;;21.50;46.20;;;;;;5042173;28;20247;-74
2023/05/31 01:41:31;;;;;;;2.25;1.92;;;21.50;47.00;;;;;;5033118;28;20278;-74
2023/05/31 01:43:59;;;;;;;2.20;2.00;;;21.50;46.00;;;;;;5019056;28;20202;-75
2023/05/31 01:46:27;;;;;;;2.00;1.80;;;21.50;46.30;;;;;;5018658;28;20240;-75
2023/05/31 01:48:54;;;;;;;1.88;1.77;;;21.50;46.60;;;;;;5018330;28;20204;-75
2023/05/31 01:51:22;;;;;;;2.67;1.83;;;21.50;47.30;;;;;;5018925;28;20200;-75
2023/05/31 01:53:49;;;;;;;2.00;1.80;;;21.50;46.70;;;;;;5018069;28;20656;-75
2023/05/31 01:56:17;;;;;;;2.20;1.95;;;21.40;46.90;;;;;;5017810;28;20598;-75
2023/05/31 01:58:48;;;;;;;1.90;1.80;;;21.40;46.60;;;;;;5017740;28;20203;-75
2023/05/31 02:01:17;;;;;;;2.50;2.00;;;21.40;46.40;;;;;;5018712;28;20283;-75
2023/05/31 02:03:44;;;;;;;3.35;1.90;;;21.40;46.90;;;;;;5017993;28;20562;-75
2023/05/31 02:06:12;;;;;;;3.25;2.35;;;21.40;46.00;;;;;;5018233;28;20307;-75
2023/05/31 02:08:40;;;;;;;2.40;2.20;;;21.40;46.10;;;;;;5017582;28;20298;-75
2023/05/31 02:11:07;;;;;;;3.03;2.00;;;21.40;46.40;;;;;;5017599;28;20280;-76
2023/05/31 02:13:36;;;;;;;2.85;1.98;;;21.40;46.20;;;;;;5017575;28;20600;-76
2023/05/31 02:16:03;;;;;;;2.17;1.98;;;21.40;46.30;;;;;;5017377;28;20302;-76
2023/05/31 02:18:32;;;;;;;4.03;2.10;;;21.40;46.10;;;;;;5017338;28;20565;-76
2023/05/31 02:21:00;;;;;;;2.00;1.80;;;21.40;46.60;;;;;;5001454;28;20551;-76
2023/05/31 02:23:27;;;;;;;3.55;1.90;;;21.30;46.20;;;;;;5033400;28;20206;-76
2023/05/31 02:25:55;;;;;;;2.13;1.92;;;21.30;46.40;;;;;;5022324;28;20224;-76
2023/05/31 02:28:22;;;;;;;3.20;1.95;;;21.30;46.30;;;;;;5017798;28;20311;-76
2023/05/31 02:30:55;;;;;;;2.72;1.83;;;21.30;46.30;;;;;;5017663;28;20202;-76
2023/05/31 02:33:23;;;;;;;2.03;1.70;;;21.30;46.40;;;;;;5018394;28;20200;-76
2023/05/31 02:35:52;;;;;;;2.13;1.80;;;21.30;46.80;;;;;;5001946;28;20315;-76
2023/05/31 02:38:20;;;;;;;2.28;2.08;;;21.30;46.80;;;;;;5018059;28;20201;-76
2023/05/31 02:40:47;;;;;;;2.95;2.05;;;21.20;46.60;;;;;;5017497;28;20667;-76
2023/05/31 02:43:14;;;;;;;1.92;1.83;;;21.20;46.50;;;;;;5017422;28;20694;-76
2023/05/31 02:45:42;;;;;;;3.38;2.10;;;21.20;46.30;;;;;;5017321;28;20212;-76
2023/05/31 02:48:10;;;;;;;2.50;1.85;;;21.20;46.70;;;;;;5017242;28;20235;-76
2023/05/31 02:50:37;;;;;;;2.20;1.88;;;21.20;46.50;;;;;;5017512;28;20658;-76
2023/05/31 02:53:12;;;;;;;2.47;1.95;;;21.20;46.60;;;;;;5018062;28;20207;-76
2023/05/31 02:55:51;;;;;;;2.65;1.90;;;21.10;46.40;;;;;;5018115;28;20592;-76
2023/05/31 02:58:24;;;;;;;2.85;1.92;;;21.10;46.50;;;;;;5036680;28;20235;-76
2023/05/31 03:01:11;;;;;;;2.78;2.00;;;21.10;46.60;;;;;;5004444;28;20230;-76
2023/05/31 03:03:48;;;;;;;3.10;2.00;;;21.10;46.30;;;;;;5017371;28;20203;-76
2023/05/31 03:06:24;;;;;;;3.00;2.50;;;21.10;46.50;;;;;;5018304;28;20223;-76
2023/05/31 03:08:53;;;;;;;2.20;2.00;;;21.10;46.70;;;;;;5017218;28;20216;-76
2023/05/31 03:11:21;;;;;;;2.00;1.80;;;21.00;46.50;;;;;;5017029;28;20196;-76
2023/05/31 03:13:48;;;;;;;1.90;1.67;;;21.10;46.70;;;;;;5016460;28;20195;-76
2023/05/31 03:16:16;;;;;;;3.63;2.10;;;21.10;47.20;;;;;;5017209;28;20768;-76
2023/05/31 03:18:44;;;;;;;1.90;1.80;;;21.10;47.30;;;;;;5017240;28;20554;-75
2023/05/31 03:21:12;;;;;;;2.17;1.80;;;21.10;47.00;;;;;;5016212;28;20297;-75
2023/05/31 03:23:39;;;;;;;2.30;2.10;;;21.10;47.20;;;;;;5001093;28;20206;-75
2023/05/31 03:26:08;;;;;;;1.90;1.80;;;21.10;47.30;;;;;;5001708;28;20232;-75
2023/05/31 03:28:35;;;;;;;2.20;1.98;;;21.10;47.90;;;;;;5017045;28;20659;-75
2023/05/31 03:31:03;;;;;;;2.40;1.88;;;21.20;46.90;;;;;;5016496;28;20220;-76
2023/05/31 03:33:31;;;;;;;2.28;2.00;;;21.20;47.10;;;;;;5016879;28;20219;-76
2023/05/31 03:35:58;;;;;;;1.95;1.80;;;21.20;46.60;;;;;;5017138;28;20220;-76
2023/05/31 03:38:25;;;;;;;2.10;1.90;;;21.20;46.70;;;;;;5017644;28;20196;-76
2023/05/31 03:40:52;;;;;;;2.92;1.77;;;21.30;46.80;;;;;;5016897;28;20286;-76
2023/05/31 03:43:21;;;;;;;2.10;1.90;;;21.30;46.70;;;;;;5016543;28;20196;-76
2023/05/31 03:45:48;;;;;;;2.45;1.95;;;21.30;46.50;;;;;;5016284;28;20302;-76
2023/05/31 03:48:16;;;;;;;1.80;1.70;;;21.30;46.50;;;;;;5016308;28;20215;-75
2023/05/31 03:50:44;;;;;;;3.33;2.03;;;21.30;46.50;;;;;;4999762;28;20227;-75
2023/05/31 03:53:11;;;;;;;2.65;1.80;;;21.40;46.40;;;;;;5016676;28;20192;-75
2023/05/31 03:55:38;;;;;;;2.00;1.85;;;21.30;46.20;;;;;;5015955;28;20593;-75
2023/05/31 03:58:06;;;;;;;2.08;1.88;;;21.40;46.80;;;;;;5016081;28;20200;-76
2023/05/31 04:00:37;;;;;;;2.33;1.95;;;21.30;46.30;;;;;;5016289;28;20204;-74
2023/05/31 04:03:05;;;;;;;2.00;1.80;;;21.40;46.60;;;;;;5015839;28;20200;-74
2023/05/31 04:05:34;;;;;;;2.22;1.88;;;21.40;46.30;;;;;;5016392;28;20226;-74
2023/05/31 04:08:01;;;;;;;2.20;2.00;;;21.30;46.50;;;;;;5016862;28;20571;-76
2023/05/31 04:10:31;;;;;;;2.03;1.75;;;21.30;46.70;;;;;;5016902;28;20228;-76
2023/05/31 04:12:58;;;;;;;2.10;1.88;;;21.40;46.20;;;;;;5015650;28;20258;-76
2023/05/31 04:15:25;;;;;;;2.00;1.80;;;21.30;46.50;;;;;;5015720;28;20212;-76
2023/05/31 04:17:56;;;;;;;1.92;1.80;;;21.30;46.40;;;;;;5015745;28;20625;-76
2023/05/31 04:20:23;;;;;;;1.88;1.70;;;21.40;46.40;;;;;;5015674;28;20210;-76
2023/05/31 04:22:52;;;;;;;2.20;1.70;;;21.30;46.30;;;;;;5016419;28;20196;-76
2023/05/31 04:25:20;;;;;;;2.47;1.80;;;21.40;46.30;;;;;;5016675;28;20206;-76
2023/05/31 04:27:47;;;;;;;2.10;1.90;;;21.40;46.20;;;;;;5019291;28;20216;-75
2023/05/31 04:30:14;;;;;;;3.20;1.90;;;21.40;46.60;;;;;;5019415;28;20196;-75
2023/05/31 04:32:44;;;;;;;2.40;1.70;;;21.40;46.50;;;;;;5019368;28;20200;-75
2023/05/31 04:35:13;;;;;;;1.88;1.77;;;21.40;46.50;;;;;;5019973;28;20548;-75
2023/05/31 04:37:46;;;;;;;2.10;1.90;;;21.40;46.40;;;;;;5020140;28;20603;-75
2023/05/31 04:40:14;;;;;;;2.00;1.80;;;21.40;47.20;;;;;;5019388;28;20196;-75
2023/05/31 04:42:41;;;;;;;3.28;1.90;;;21.40;46.30;;;;;;5003430;28;20192;-75
2023/05/31 04:45:21;;;;;;;1.98;1.88;;;21.50;46.20;;;;;;5019282;28;20212;-75
2023/05/31 04:47:52;;;;;;;2.38;2.20;;;21.70;45.80;;;;;;5020167;28;20224;-75
2023/05/31 04:50:21;;;;;;;2.55;2.00;;;21.80;45.50;;;;;;5019765;28;20192;-75
2023/05/31 04:52:51;;;;;;;2.75;2.15;;;22.00;45.20;;;;;;5018934;28;20208;-77
2023/05/31 04:55:18;;;;;;;2.60;1.90;;;22.20;45.10;;;;;;5018864;28;20662;-76
2023/05/31 04:57:45;;;;;;;2.58;1.75;;;22.40;44.90;;;;;;5018890;28;20318;-76
2023/05/31 05:00:15;;;;;;;2.13;1.60;;;22.50;44.50;;;;;;5019521;28;20298;-76
2023/05/31 05:02:57;;;;;;;1.75;1.65;;;22.70;44.20;;;;;;5019149;28;20290;-76
2023/05/31 05:05:26;;;;;;;1.98;1.88;;;22.80;43.90;;;;;;5018816;28;20212;-77
2023/05/31 05:07:53;;;;;;;2.33;1.80;;;23.00;43.80;;;;;;5019275;28;20212;-76
2023/05/31 05:10:23;;;;;;;1.90;1.70;;;23.10;43.50;;;;;;5019307;28;20278;-76
2023/05/31 05:12:50;;;;;;;3.30;1.90;;;23.20;43.20;;;;;;5018679;28;20207;-77
2023/05/31 05:15:17;;;;;;;3.25;2.13;;;23.30;40.00;;;;;;5018356;28;20200;-78
2023/05/31 05:17:45;;;;;;;2.63;1.92;;;23.10;40.20;;;;;;5018697;28;20196;-77
2023/05/31 05:20:14;;;;;;;3.92;2.15;;;23.20;40.70;;;;;;5017390;28;20465;-77
2023/05/31 05:22:51;;;;;;;2.33;2.08;;;23.30;40.60;;;;;;5018300;28;20196;-77
2023/05/31 05:25:18;;;;;;;2.72;2.13;;;23.50;40.80;;;;;;5018426;28;20567;-77
2023/05/31 05:27:45;;;;;;;2.35;2.00;;;23.60;40.90;;;;;;5018687;28;20728;-77
2023/05/31 05:30:13;;;;;;;2.38;1.95;;;23.70;40.80;;;;;;5002416;28;20288;-78
2023/05/31 05:32:40;;;;;;;2.75;1.90;;;23.80;40.80;;;;;;5018213;28;20200;-78
2023/05/31 05:35:08;;;;;;;3.78;2.15;;;24.00;40.90;;;;;;5018280;28;20196;-78
2023/05/31 05:37:36;;;;;;;4.47;2.20;;;24.10;40.80;;;;;;5001752;28;20674;-78
2023/05/31 05:40:07;;;;;;;3.13;2.00;;;24.20;40.60;;;;;;5019372;28;20200;-79
2023/05/31 05:42:36;;;;;;;2.00;1.88;;;24.30;40.50;;;;;;5018951;28;20203;-79
2023/05/31 05:45:06;;;;;;;3.15;2.20;;;24.50;40.50;;;;;;5018677;28;20674;-79
2023/05/31 05:47:34;;;;;;;2.47;2.20;;;24.60;40.30;;;;;;5018458;28;20211;-78
2023/05/31 05:50:02;;;;;;;2.78;2.03;;;24.70;41.10;;;;;;5019586;28;20662;-80
2023/05/31 05:52:33;;;;;;;3.10;2.20;;;24.80;40.20;;;;;;5020640;28;20283;-78
2023/05/31 05:55:01;;;;;;;3.75;2.22;;;24.90;39.90;;;;;;5020244;28;20206;-79
2023/05/31 05:57:30;;;;;;;2.70;2.10;;;24.90;39.80;;;;;;5019653;28;20195;-79
2023/05/31 06:00:11;;;;;;;3.55;2.13;;;25.00;39.60;;;;;;5018375;28;20204;-79
2023/05/31 06:02:40;;;;;;;2.58;2.00;;;25.10;39.50;;;;;;5035687;28;20207;-79
2023/05/31 06:05:09;;;;;;;3.25;2.05;;;25.20;39.50;;;;;;5018343;28;20206;-79
2023/05/31 06:07:36;;;;;;;2.15;1.95;;;25.30;39.40;;;;;;5002350;28;20216;-79
2023/05/31 06:10:03;;;;;;;2.20;2.00;;;25.40;39.20;;;;;;5017580;28;20572;-79
2023/05/31 06:12:32;;;;;;;2.22;1.80;;;25.40;39.00;;;;;;5001754;28;20214;-79
2023/05/31 06:15:01;;;;;;;2.58;1.90;;;25.60;38.90;;;;;;5002867;28;20226;-79
2023/05/31 06:17:28;;;;;;;2.28;2.00;;;25.60;38.70;;;;;;5022082;28;20662;-80
2023/05/31 06:19:56;;;;;;;3.10;2.20;;;25.70;38.50;;;;;;5023287;28;20639;-81
2023/05/31 06:22:24;;;;;;;3.67;2.30;;;25.80;38.70;;;;;;5022948;28;20250;-82
2023/05/31 06:24:53;;;;;;;3.25;1.90;;;25.90;38.60;;;;;;5022715;28;20200;-81
2023/05/31 06:30:05;;;;;;;2.00;1.80;;;25.90;38.30;;;;;;5022086;28;20196;-81
2023/05/31 06:32:39;;;;;;;1.90;1.80;;;26.10;38.30;;;;;;5021411;28;20678;-80
2023/05/31 06:35:08;;;;;;;3.00;2.28;;;26.10;38.20;;;;;;5022149;28;20264;-81
2023/05/31 06:37:36;;;;;;;2.00;1.80;;;26.20;38.10;;;;;;5020987;28;20203;-80
2023/05/31 06:40:04;;;;;;;2.08;1.85;;;26.30;37.90;;;;;;5019832;28;20191;-81
2023/05/31 06:42:33;;;;;;;1.70;1.60;;;26.30;37.80;;;;;;5020399;28;20196;-80
2023/05/31 06:45:00;;;;;;;2.17;1.85;;;26.40;37.70;;;;;;5038938;28;20230;-81
2023/05/31 06:47:48;;;;;;;2.47;2.00;;;26.40;37.60;;;;;;5035922;28;20546;-81
2023/05/31 06:50:15;;;;;;;2.75;2.17;;;26.50;37.50;;;;;;5036229;28;20631;-81
2023/05/31 06:52:51;;;;;;;3.35;1.88;;;26.50;37.30;;;;;;5035746;28;20529;-81
2023/05/31 06:55:41;;;;;;;3.83;2.35;;;26.60;37.30;;;;;;5017910;28;20226;-81
2023/05/31 06:58:11;;;;;;;2.28;2.00;;;26.70;37.10;;;;;;5033477;28;20195;-80
2023/05/31 07:00:41;;;;;;;2.40;2.10;;;26.70;37.00;;;;;;5033345;28;20195;-80
2023/05/31 07:03:09;;;;;;;1.75;1.65;;;26.80;37.10;;;;;;5028629;28;20203;-80
2023/05/31 07:05:40;;;;;;;1.92;1.75;;;26.80;37.10;;;;;;5022930;28;20226;-80
2023/05/31 07:08:07;;;;;;;3.55;1.85;;;26.90;37.00;;;;;;5021438;28;20195;-80
2023/05/31 07:10:45;;;;;;;1.90;1.77;;;26.90;36.80;;;;;;5007077;28;20258;-80
2023/05/31 07:13:12;;;;;;;2.10;1.90;;;27.00;36.80;;;;;;5021140;28;20195;-81
2023/05/31 07:15:40;;;;;;;2.50;2.10;;;27.00;36.70;;;;;;5020360;28;20242;-81
2023/05/31 07:18:09;;;;;;;3.35;1.70;;;27.10;36.70;;;;;;5020623;28;20206;-81
2023/05/31 07:20:37;;;;;;;2.42;1.98;;;27.10;36.60;;;;;;5020805;28;20226;-81
2023/05/31 07:23:04;;;;;;;1.98;1.77;;;27.10;36.50;;;;;;5021112;28;20283;-81
2023/05/31 07:25:31;;;;;;;2.47;2.00;;;27.20;36.50;;;;;;5037004;28;20214;-79
2023/05/31 07:27:58;;;;;;;1.80;1.70;;;27.20;36.40;;;;;;5016620;28;20207;-79
2023/05/31 07:30:25;;;;;;;2.58;1.60;;;27.20;36.20;;;;;;5016969;28;20203;-79
2023/05/31 07:32:53;;;;;;;2.35;1.90;;;27.20;36.10;;;;;;5017133;28;20278;-79
2023/05/31 07:35:21;;;;;;;3.03;2.00;;;27.30;36.10;;;;;;5017053;28;20642;-79
2023/05/31 07:37:49;;;;;;;2.75;2.00;;;27.30;36.00;;;;;;5017705;28;20569;-80
2023/05/31 07:40:16;;;;;;;2.38;1.80;;;27.40;36.00;;;;;;5018435;28;20661;-81
2023/05/31 07:42:47;;;;;;;2.25;1.80;;;27.40;35.90;;;;;;5019441;28;20199;-81
2023/05/31 07:45:14;;;;;;;2.20;1.98;;;27.40;35.90;;;;;;5018007;28;20198;-81
2023/05/31 07:47:41;;;;;;;1.83;1.55;;;27.50;35.90;;;;;;5016966;28;20709;-79
2023/05/31 07:50:12;;;;;;;2.15;1.90;;;27.50;35.90;;;;;;5018042;28;20216;-81
2023/05/31 07:52:41;;;;;;;2.00;1.80;;;27.50;35.90;;;;;;5017305;28;20270;-81
2023/05/31 07:55:08;;;;;;;3.88;1.80;;;27.50;35.80;;;;;;5018209;28;20199;-81
2023/05/31 07:57:35;;;;;;;2.22;2.00;;;27.50;35.80;;;;;;5017000;28;20210;-79
2023/05/31 08:00:04;;;;;;;1.85;1.73;;;27.60;35.80;;;;;;5019066;28;20210;-79
2023/05/31 08:02:38;;;;;;;2.95;1.90;;;27.60;35.80;;;;;;5038142;28;20229;-79
2023/05/31 08:05:07;;;;;;;3.08;1.90;;;27.60;35.80;;;;;;5004364;28;20199;-79
2023/05/31 08:07:35;;;;;;;2.78;1.98;;;27.60;35.70;;;;;;5020689;28;20195;-79
2023/05/31 08:10:04;;;;;;;2.05;1.80;;;27.60;35.70;;;;;;5020614;28;20219;-80
2023/05/31 08:12:32;;;;;;;1.85;1.73;;;27.70;35.80;;;;;;5021013;28;20727;-80
2023/05/31 08:14:59;;;;;;;2.42;1.70;;;27.70;35.70;;;;;;5020130;28;20257;-80
2023/05/31 08:17:26;;;;;;;2.85;2.15;;;27.70;35.60;;;;;;5020337;28;20206;-80
2023/05/31 08:19:54;;;;;;;2.20;2.00;;;27.70;36.20;;;;;;5021172;28;20192;-80
2023/05/31 08:22:21;;;;;;;2.10;1.90;;;27.70;35.60;;;;;;5004166;28;20598;-80
2023/05/31 08:24:48;;;;;;;2.67;1.88;;;27.70;35.70;;;;;;5020738;28;20518;-80
2023/05/31 08:27:17;;;;;;;1.73;1.60;;;27.70;35.70;;;;;;5020688;28;20588;-80
2023/05/31 08:29:45;;;;;;;2.15;1.95;;;27.70;36.40;;;;;;5020904;28;20216;-80
2023/05/31 08:32:12;;;;;;;1.90;1.80;;;27.70;35.80;;;;;;5021256;28;20203;-80
2023/05/31 08:34:39;;;;;;;2.08;1.73;;;27.70;35.80;;;;;;5020351;28;20290;-80
2023/05/31 08:37:07;;;;;;;2.35;1.70;;;27.70;35.90;;;;;;5019783;28;20610;-80
2023/05/31 08:39:34;;;;;;;2.00;1.83;;;27.70;35.90;;;;;;5020565;28;20191;-80
2023/05/31 08:42:02;;;;;;;2.60;1.83;;;27.70;35.90;;;;;;5003338;28;20258;-80
2023/05/31 08:44:31;;;;;;;2.30;1.80;;;27.60;35.90;;;;;;5019719;28;20219;-80
2023/05/31 08:46:59;;;;;;;2.70;1.92;;;27.70;36.00;;;;;;5003962;28;20220;-80
2023/05/31 08:49:26;;;;;;;1.92;1.73;;;27.70;36.00;;;;;;5020662;28;20211;-80
2023/05/31 08:51:53;;;;;;;2.25;2.03;;;27.70;36.00;;;;;;5019401;28;20298;-80
2023/05/31 08:54:20;;;;;;;1.90;1.73;;;27.70;36.00;;;;;;5019499;28;20658;-80
2023/05/31 08:56:47;;;;;;;2.22;1.80;;;27.70;36.00;;;;;;5019067;28;20219;-80
2023/05/31 08:59:17;;;;;;;3.40;2.00;;;27.70;36.00;;;;;;5019446;28;20203;-80
2023/05/31 09:01:45;;;;;;;2.65;2.13;;;27.70;36.10;;;;;;5003036;28;20208;-80
2023/05/31 09:04:13;;;;;;;1.80;1.70;;;27.70;36.00;;;;;;5018976;28;20273;-80
2023/05/31 09:06:40;;;;;;;1.65;1.55;;;27.70;36.10;;;;;;5036849;28;20218;-80
2023/05/31 09:09:08;;;;;;;1.98;1.80;;;27.70;36.00;;;;;;5019261;28;20219;-81
2023/05/31 09:11:37;;;;;;;2.50;1.80;;;27.70;36.00;;;;;;5019168;28;20215;-82
2023/05/31 09:14:05;;;;;;;2.05;1.85;;;27.70;36.00;;;;;;5020049;28;20196;-81
2023/05/31 09:16:32;;;;;;;2.92;2.10;;;27.70;36.00;;;;;;5019711;28;20223;-81
2023/05/31 09:19:06;;;;;;;2.17;1.75;;;27.70;36.00;;;;;;5019969;28;20271;-80
2023/05/31 09:21:39;;;;;;;1.98;1.80;;;27.70;36.00;;;;;;5019718;28;20192;-80
2023/05/31 09:24:06;;;;;;;2.63;1.83;;;27.70;36.10;;;;;;5020256;28;20650;-80
2023/05/31 09:26:34;;;;;;;2.10;1.90;;;27.70;36.70;;;;;;5019737;28;20286;-80
2023/05/31 09:29:01;;;;;;;2.10;1.90;;;27.70;36.00;;;;;;5019796;28;20262;-80
2023/05/31 09:31:28;;;;;;;2.00;1.80;;;27.70;36.00;;;;;;5019865;28;20206;-80
2023/05/31 09:33:55;;;;;;;2.10;1.90;;;27.70;36.00;;;;;;5019361;28;20227;-80
2023/05/31 09:36:28;;;;;;;1.80;1.70;;;27.70;36.10;;;;;;5003657;28;20225;-80
2023/05/31 09:39:02;;;;;;;2.20;1.80;;;27.70;36.20;;;;;;5020858;28;20202;-81
2023/05/31 09:41:30;;;;;;;2.22;2.03;;;27.60;36.10;;;;;;5021716;28;20213;-81
2023/05/31 09:43:57;;;;;;;2.50;2.08;;;27.70;36.20;;;;;;5022242;28;20198;-80
2023/05/31 09:46:25;;;;;;;1.88;1.70;;;27.60;36.10;;;;;;5022322;28;20223;-80
2023/05/31 09:49:06;;;;;;;2.58;1.75;;;27.60;36.20;;;;;;5022147;28;20203;-81
2023/05/31 09:51:35;;;;;;;1.90;1.80;;;27.60;36.30;;;;;;5019442;28;20195;-80
2023/05/31 09:54:07;;;;;;;4.03;2.17;;;27.60;36.30;;;;;;5017833;28;20273;-80
2023/05/31 09:56:37;;;;;;;2.25;1.85;;;27.50;36.30;;;;;;5034079;28;20238;-80
2023/05/31 09:59:05;;;;;;;1.80;1.65;;;27.60;36.40;;;;;;5034997;28;20183;-80
2023/05/31 10:01:32;;;;;;;2.55;1.88;;;27.50;36.30;;;;;;5033885;28;20211;-80
2023/05/31 10:03:59;;;;;;;1.77;1.67;;;27.50;36.40;;;;;;5003476;28;20255;-80
2023/05/31 10:06:27;;;;;;;2.10;1.80;;;27.50;36.50;;;;;;5018340;28;20641;-80
2023/05/31 10:08:55;;;;;;;2.55;1.70;;;27.50;36.50;;;;;;5018429;28;20210;-80
2023/05/31 10:11:26;;;;;;;1.80;1.60;;;27.40;36.50;;;;;;5002544;28;20202;-80
2023/05/31 10:13:56;;;;;;;2.00;1.80;;;27.40;36.60;;;;;;5017712;28;20191;-80
2023/05/31 10:16:23;;;;;;;2.03;1.80;;;27.40;37.30;;;;;;5018046;28;20768;-80
2023/05/31 10:18:50;;;;;;;1.70;1.55;;;27.30;36.70;;;;;;5020101;28;20199;-81
2023/05/31 10:21:22;;;;;;;1.90;1.70;;;27.30;36.70;;;;;;5018030;28;20218;-81
2023/05/31 10:24:02;;;;;;;2.38;1.88;;;27.30;36.80;;;;;;5016870;28;20254;-81
2023/05/31 10:26:35;;;;;;;1.85;1.60;;;27.30;36.90;;;;;;5018385;28;20257;-81
2023/05/31 10:29:06;;;;;;;2.60;1.80;;;27.20;36.90;;;;;;5018106;28;20712;-80
2023/05/31 10:31:38;;;;;;;1.95;1.75;;;27.20;37.00;;;;;;5017867;28;20582;-80
2023/05/31 10:34:10;;;;;;;2.10;1.70;;;27.20;37.10;;;;;;5018921;28;20229;-81
2023/05/31 10:36:38;;;;;;;1.70;1.60;;;27.10;37.20;;;;;;5017856;28;20247;-81
2023/05/31 10:39:09;;;;;;;1.90;1.80;;;27.10;37.20;;;;;;5001285;28;20202;-81
2023/05/31 10:41:40;;;;;;;3.03;1.80;;;27.10;37.20;;;;;;5017510;28;20196;-81
2023/05/31 10:44:09;;;;;;;2.00;1.80;;;27.10;37.30;;;;;;5017621;28;20202;-81
2023/05/31 10:46:36;;;;;;;2.17;1.98;;;27.10;37.40;;;;;;5017337;28;20226;-81
2023/05/31 10:49:03;;;;;;;1.60;1.50;;;27.00;37.40;;;;;;5017640;28;20195;-80
2023/05/31 10:51:40;;;;;;;1.90;1.67;;;27.00;37.50;;;;;;5002934;28;20680;-81
2023/05/31 10:54:08;;;;;;;1.70;1.60;;;26.90;37.60;;;;;;5018581;28;20279;-80
2023/05/31 10:56:37;;;;;;;2.10;1.50;;;26.90;37.70;;;;;;5017814;28;20219;-80
2023/05/31 10:59:10;;;;;;;2.75;1.90;;;26.90;37.80;;;;;;5022278;28;20207;-80
2023/05/31 11:01:37;;;;;;;1.77;1.67;;;26.80;37.90;;;;;;5041449;28;20187;-80
2023/05/31 11:04:04;;;;;;;1.80;1.70;;;26.70;38.00;;;;;;5041077;28;20207;-80
2023/05/31 11:06:33;;;;;;;1.65;1.55;;;26.60;38.20;;;;;;5041731;28;20222;-80
2023/05/31 11:09:02;;;;;;;1.60;1.50;;;26.60;38.40;;;;;;5041016;28;20183;-80
2023/05/31 11:11:46;;;;;;;1.80;1.70;;;26.60;38.50;;;;;;5056293;28;20208;-80
2023/05/31 11:14:30;;;;;;;1.75;1.65;;;26.50;38.50;;;;;;5021672;28;20199;-81
2023/05/31 11:17:15;;;;;;;2.15;1.70;;;26.50;38.70;;;;;;5019281;28;20215;-80
2023/05/31 11:19:43;;;;;;;1.75;1.65;;;26.50;38.80;;;;;;5018807;28;20286;-80
2023/05/31 11:22:10;;;;;;;2.20;1.67;;;26.40;38.80;;;;;;5019324;28;20198;-80
2023/05/31 11:24:39;;;;;;;1.80;1.70;;;26.40;38.90;;;;;;5003744;28;20241;-80
2023/05/31 11:27:11;;;;;;;2.20;1.60;;;26.40;39.00;;;;;;5037709;28;20215;-80
2023/05/31 11:29:58;;;;;;;2.10;1.95;;;26.30;39.00;;;;;;5030114;28;20211;-80
2023/05/31 11:32:56;;;;;;;2.10;1.85;;;26.40;39.00;;;;;;5039892;28;20179;-79
2023/05/31 11:35:26;;;;;;;1.80;1.70;;;26.40;39.10;;;;;;5018713;28;20223;-80
2023/05/31 11:38:06;;;;;;;2.17;1.98;;;26.30;39.10;;;;;;5019509;28;20196;-81
2023/05/31 11:40:35;;;;;;;2.20;1.98;;;26.30;39.10;;;;;;5019549;28;20195;-81
2023/05/31 11:43:11;;;;;;;1.73;1.63;;;26.30;39.70;;;;;;5019451;28;20214;-81
2023/05/31 11:45:47;;;;;;;2.00;1.80;;;26.30;39.20;;;;;;5019749;28;20227;-81
2023/05/31 11:48:34;;;;;;;2.33;1.88;;;26.20;39.20;;;;;;5020303;28;20199;-81
2023/05/31 11:51:02;;;;;;;2.15;1.90;;;26.30;39.30;;;;;;5020369;28;20219;-81
2023/05/31 11:53:30;;;;;;;1.83;1.73;;;26.30;39.30;;;;;;5018355;28;20203;-81
2023/05/31 11:55:59;;;;;;;1.83;1.70;;;26.30;40.00;;;;;;5019285;28;20226;-81
2023/05/31 11:58:28;;;;;;;4.57;2.00;;;26.20;39.30;;;;;;5019665;28;20191;-81
2023/05/31 12:00:59;;;;;;;1.88;1.70;;;26.30;39.40;;;;;;5019417;28;20196;-81
2023/05/31 12:03:26;;;;;;;1.85;1.50;;;26.20;39.40;;;;;;5018890;28;20191;-80
2023/05/31 12:05:58;;;;;;;1.73;1.60;;;26.20;39.40;;;;;;5019079;28;20230;-80
2023/05/31 12:08:28;;;;;;;3.20;1.60;;;26.20;39.50;;;;;;5019687;28;20283;-80
2023/05/31 12:11:02;;;;;;;2.10;1.60;;;26.20;39.50;;;;;;5020418;28;20219;-80
2023/05/31 12:13:31;;;;;;;1.67;1.58;;;26.20;40.10;;;;;;5020520;28;20196;-80
2023/05/31 12:15:59;;;;;;;1.73;1.63;;;26.20;39.50;;;;;;5019848;28;20219;-80
2023/05/31 12:18:26;;;;;;;1.90;1.70;;;26.20;39.50;;;;;;5019012;28;20206;-80
2023/05/31 12:20:53;;;;;;;1.60;1.50;;;26.20;39.50;;;;;;5018187;28;20192;-80
2023/05/31 12:23:21;;;;;;;1.73;1.63;;;26.20;39.50;;;;;;5018411;28;20580;-79
2023/05/31 12:25:48;;;;;;;1.60;1.50;;;26.20;39.50;;;;;;5018329;28;20237;-79
2023/05/31 12:28:17;;;;;;;2.20;1.80;;;26.20;39.50;;;;;;5020465;28;20196;-80
2023/05/31 12:30:46;;;;;;;1.77;1.67;;;26.20;39.50;;;;;;5024213;28;20216;-80
2023/05/31 12:33:13;;;;;;;2.60;1.75;;;26.20;39.60;;;;;;5021662;28;20215;-80
2023/05/31 12:35:42;;;;;;;2.10;1.90;;;26.20;39.60;;;;;;5019942;28;20242;-80
2023/05/31 12:38:10;;;;;;;2.05;1.77;;;26.20;39.60;;;;;;5020401;28;20192;-81
2023/05/31 12:40:42;;;;;;;1.92;1.83;;;26.20;39.70;;;;;;5019865;28;20246;-80
2023/05/31 12:43:10;;;;;;;1.83;1.73;;;26.20;39.70;;;;;;5019533;28;20619;-80
2023/05/31 12:45:41;;;;;;;1.90;1.70;;;26.20;39.70;;;;;;5018975;28;20276;-80
2023/05/31 12:48:22;;;;;;;1.77;1.67;;;26.20;39.80;;;;;;5022957;28;20607;-80
2023/05/31 12:51:05;;;;;;;1.77;1.67;;;26.20;39.80;;;;;;5024300;28;20211;-82
2023/05/31 12:53:58;;;;;;;1.70;1.60;;;26.20;39.90;;;;;;5023910;28;20514;-80
2023/05/31 12:56:54;;;;;;;1.50;1.40;;;26.20;39.90;;;;;;5022893;28;20632;-81
2023/05/31 12:59:43;;;;;;;2.35;1.77;;;26.20;39.90;;;;;;5041025;28;20275;-81
2023/05/31 13:02:33;;;;;;;1.58;1.48;;;26.20;39.90;;;;;;5040382;28;20594;-81
2023/05/31 13:05:01;;;;;;;1.88;1.73;;;26.10;40.40;;;;;;5019982;28;20202;-81